Time;durP1;ratioP1;P1;durP2;ratioP2;P2;SDS_P1;SDS_P2;PMS_P1;PMS_P2;Temp;Humidity;BMP_temperature;BMP_pressure;BME280_temperature;BME280_humidity;BME280_pressure;Samples;Min_cycle;Max_cycle;Signal;HPM_P1;HPM_P2
2022/01/31 00:00:17;;;;;;;43.25;27.60;;;23.70;98.50;;;;;;4212347;28;20036;-72
2022/01/31 00:02:23;;;;;;;35.90;25.80;;;23.70;98.60;;;;;;4211526;28;20139;-72
2022/01/31 00:04:27;;;;;;;35.22;24.80;;;23.70;98.90;;;;;;4209818;28;20095;-72
2022/01/31 00:06:32;;;;;;;40.40;26.20;;;23.70;99.10;;;;;;4210394;28;20047;-72
2022/01/31 00:08:36;;;;;;;33.85;23.58;;;23.70;99.20;;;;;;4211926;28;20059;-72
2022/01/31 00:10:42;;;;;;;35.58;23.08;;;23.70;99.20;;;;;;4221034;28;20048;-73
2022/01/31 00:12:59;;;;;;;31.33;22.45;;;23.70;99.40;;;;;;4212177;28;20060;-72
2022/01/31 00:15:04;;;;;;;32.45;22.65;;;23.70;99.50;;;;;;4222602;28;20652;-71
2022/01/31 00:17:09;;;;;;;36.55;22.67;;;23.70;99.50;;;;;;4195177;28;20041;-73
2022/01/31 00:19:14;;;;;;;30.38;22.10;;;23.70;99.60;;;;;;4212469;28;20043;-72
2022/01/31 00:21:18;;;;;;;28.23;21.05;;;23.70;99.60;;;;;;4213068;28;20135;-74
2022/01/31 00:23:22;;;;;;;29.05;21.20;;;23.80;99.50;;;;;;4212509;28;20126;-73
2022/01/31 00:25:26;;;;;;;28.58;20.85;;;23.90;99.60;;;;;;4215929;28;20090;-72
2022/01/31 00:27:31;;;;;;;28.38;21.15;;;23.90;99.50;;;;;;4211578;28;20047;-75
2022/01/31 00:29:35;;;;;;;28.23;22.70;;;23.90;99.70;;;;;;4216159;28;20131;-75
2022/01/31 00:31:39;;;;;;;33.40;23.23;;;23.90;99.80;;;;;;4210992;28;20064;-73
2022/01/31 00:33:43;;;;;;;32.63;22.92;;;24.00;99.60;;;;;;4195586;28;20148;-70
2022/01/31 00:35:47;;;;;;;37.15;24.23;;;24.00;99.50;;;;;;4210168;28;20052;-71
2022/01/31 00:37:52;;;;;;;36.30;23.45;;;24.00;99.80;;;;;;4217031;28;20052;-71
2022/01/31 00:39:56;;;;;;;36.17;23.83;;;24.10;99.60;;;;;;4220006;28;20043;-70
2022/01/31 00:42:04;;;;;;;32.22;21.30;;;24.10;99.40;;;;;;4218275;28;20052;-70
2022/01/31 00:44:22;;;;;;;33.65;22.25;;;24.20;99.40;;;;;;4210254;28;20116;-71
2022/01/31 00:46:39;;;;;;;35.17;22.85;;;24.20;99.50;;;;;;4210813;28;20051;-70
2022/01/31 00:48:45;;;;;;;32.67;22.95;;;24.20;99.60;;;;;;4214059;28;20048;-71
2022/01/31 00:50:50;;;;;;;34.92;21.92;;;24.30;99.70;;;;;;4212968;28;20052;-72
2022/01/31 00:52:55;;;;;;;34.03;22.58;;;24.30;99.60;;;;;;4195747;28;20075;-72
2022/01/31 00:54:59;;;;;;;37.33;23.60;;;24.30;99.60;;;;;;4211184;28;20051;-71
2022/01/31 00:57:04;;;;;;;36.17;22.42;;;24.40;99.60;;;;;;4213998;28;20123;-71
2022/01/31 00:59:08;;;;;;;34.30;21.50;;;24.40;99.70;;;;;;4214077;28;20036;-70
2022/01/31 01:01:12;;;;;;;29.58;21.20;;;24.40;99.60;;;;;;4214249;28;20032;-70
2022/01/31 01:03:17;;;;;;;29.65;20.70;;;24.40;99.50;;;;;;4211987;28;20040;-70
2022/01/31 01:05:21;;;;;;;27.80;20.70;;;24.40;99.60;;;;;;4195915;28;20434;-71
2022/01/31 01:07:26;;;;;;;28.80;19.95;;;24.50;99.60;;;;;;4214252;28;20044;-71
2022/01/31 01:09:30;;;;;;;25.27;19.40;;;24.50;99.50;;;;;;4214017;28;20054;-70
2022/01/31 01:11:35;;;;;;;27.63;19.80;;;24.50;99.60;;;;;;4196178;28;20052;-70
2022/01/31 01:13:39;;;;;;;24.90;19.33;;;24.50;99.50;;;;;;4196048;28;20255;-70
2022/01/31 01:15:44;;;;;;;25.63;20.50;;;24.60;99.50;;;;;;4214020;28;20047;-70
2022/01/31 01:17:48;;;;;;;29.23;21.05;;;24.60;99.50;;;;;;4213601;28;20119;-70
2022/01/31 01:19:59;;;;;;;27.35;19.85;;;24.60;99.60;;;;;;4213562;28;20079;-70
2022/01/31 01:22:04;;;;;;;27.42;19.95;;;24.60;99.50;;;;;;4195952;28;20032;-69
2022/01/31 01:24:09;;;;;;;27.58;19.40;;;24.70;99.50;;;;;;4213604;28;20044;-71
2022/01/31 01:26:14;;;;;;;28.90;18.88;;;24.70;99.40;;;;;;4194630;28;20395;-69
2022/01/31 01:28:22;;;;;;;25.05;18.92;;;24.80;99.40;;;;;;4211577;28;20398;-71
2022/01/31 01:30:27;;;;;;;27.95;18.90;;;24.80;99.30;;;;;;4215910;28;20135;-71
2022/01/31 01:32:37;;;;;;;23.05;18.92;;;24.80;99.20;;;;;;4210750;28;20087;-71
2022/01/31 01:34:41;;;;;;;29.55;19.52;;;24.90;99.10;;;;;;4211302;28;20040;-70
2022/01/31 01:36:53;;;;;;;23.88;19.25;;;24.90;99.10;;;;;;4195147;28;20045;-72
2022/01/31 01:38:58;;;;;;;29.50;18.90;;;24.90;99.00;;;;;;4195448;28;20036;-72
2022/01/31 01:41:02;;;;;;;27.15;19.63;;;24.90;98.90;;;;;;4198179;28;20086;-71
2022/01/31 01:43:06;;;;;;;24.63;19.42;;;25.00;99.00;;;;;;4213772;28;20040;-71
2022/01/31 01:45:11;;;;;;;27.95;19.65;;;25.10;99.20;;;;;;4195568;28;20045;-71
2022/01/31 01:47:19;;;;;;;26.35;19.55;;;25.00;99.10;;;;;;4195077;28;20048;-71
2022/01/31 01:49:23;;;;;;;26.08;19.85;;;25.10;99.00;;;;;;4193111;28;20048;-69
2022/01/31 01:51:30;;;;;;;26.00;19.15;;;25.10;99.00;;;;;;4199138;28;20048;-69
2022/01/31 01:53:34;;;;;;;25.58;19.25;;;25.10;99.10;;;;;;4195079;28;20049;-69
2022/01/31 01:55:40;;;;;;;27.73;19.05;;;25.10;99.00;;;;;;4195595;28;20052;-69
2022/01/31 01:57:45;;;;;;;24.95;19.30;;;25.20;98.80;;;;;;4194683;28;20044;-69
2022/01/31 01:59:55;;;;;;;25.42;18.98;;;25.20;98.80;;;;;;4195471;28;20036;-69
2022/01/31 02:02:17;;;;;;;28.45;19.05;;;25.20;98.90;;;;;;4211550;28;20500;-69
2022/01/31 02:04:21;;;;;;;25.42;19.42;;;25.20;98.90;;;;;;4211929;28;20048;-69
2022/01/31 02:06:25;;;;;;;25.58;18.92;;;25.30;98.90;;;;;;4195010;28;20090;-69
2022/01/31 02:08:43;;;;;;;25.70;17.98;;;25.40;98.80;;;;;;4211664;28;20083;-68
2022/01/31 02:10:52;;;;;;;23.25;18.55;;;25.40;98.70;;;;;;4193908;28;20044;-69
2022/01/31 02:13:06;;;;;;;24.13;17.70;;;25.40;98.50;;;;;;4210575;28;20032;-68
2022/01/31 02:15:25;;;;;;;28.38;17.65;;;25.50;98.30;;;;;;4212998;28;20075;-70
2022/01/31 02:17:42;;;;;;;20.25;17.88;;;25.60;98.40;;;;;;4212400;28;20072;-68
2022/01/31 02:19:53;;;;;;;30.10;17.98;;;25.60;98.30;;;;;;4210024;28;20713;-68
2022/01/31 02:22:02;;;;;;;25.27;18.48;;;25.60;98.20;;;;;;4215994;28;20035;-70
2022/01/31 02:24:19;;;;;;;27.65;18.13;;;25.60;98.10;;;;;;4195987;28;20148;-70
2022/01/31 02:26:36;;;;;;;21.73;18.17;;;25.70;98.00;;;;;;4194661;28;20045;-70
2022/01/31 02:28:48;;;;;;;27.23;17.52;;;25.70;98.00;;;;;;4196774;28;20767;-70
2022/01/31 02:30:55;;;;;;;32.70;18.98;;;25.70;97.80;;;;;;4194789;28;20044;-69
2022/01/31 02:32:59;;;;;;;29.42;18.40;;;25.80;97.90;;;;;;4197740;28;20069;-69
2022/01/31 02:35:05;;;;;;;25.30;18.30;;;25.80;97.90;;;;;;4194746;28;20128;-69
2022/01/31 02:37:10;;;;;;;24.40;17.88;;;25.90;97.70;;;;;;4210717;28;20048;-69
2022/01/31 02:39:14;;;;;;;29.60;18.58;;;25.90;97.50;;;;;;4194145;28;20356;-68
2022/01/31 02:41:19;;;;;;;26.17;17.75;;;26.00;97.50;;;;;;4191995;28;20490;-70
2022/01/31 02:43:24;;;;;;;26.50;17.80;;;26.00;97.30;;;;;;4214731;28;20467;-70
2022/01/31 02:45:30;;;;;;;25.00;19.38;;;26.00;97.20;;;;;;4192194;28;20398;-72
2022/01/31 02:47:40;;;;;;;21.45;18.25;;;26.00;97.20;;;;;;4194282;28;20136;-71
2022/01/31 02:49:52;;;;;;;29.35;19.30;;;26.10;97.10;;;;;;4212267;28;20048;-69
2022/01/31 02:52:01;;;;;;;26.70;17.75;;;26.10;97.00;;;;;;4193695;28;20522;-69
2022/01/31 02:54:05;;;;;;;26.30;18.45;;;26.20;97.20;;;;;;4198742;28;20043;-70
2022/01/31 02:56:10;;;;;;;24.50;17.75;;;26.20;97.00;;;;;;4190771;28;20102;-70
2022/01/31 02:58:15;;;;;;;24.95;19.20;;;26.30;96.80;;;;;;4171993;28;20132;-70
2022/01/31 03:00:20;;;;;;;28.90;18.95;;;26.30;96.70;;;;;;4154697;28;20053;-69
2022/01/31 03:02:40;;;;;;;25.33;18.15;;;26.30;96.60;;;;;;4171355;28;20153;-70
2022/01/31 03:04:44;;;;;;;24.15;17.80;;;26.40;96.70;;;;;;4193150;28;20048;-70
2022/01/31 03:06:49;;;;;;;26.17;19.10;;;26.40;96.70;;;;;;4173169;28;20076;-70
2022/01/31 03:08:57;;;;;;;24.52;19.10;;;26.40;96.60;;;;;;4158040;28;20064;-70
2022/01/31 03:11:10;;;;;;;22.77;17.95;;;26.40;96.40;;;;;;4171072;28;20495;-70
2022/01/31 03:13:27;;;;;;;22.40;18.17;;;26.50;96.50;;;;;;4190839;28;20044;-70
2022/01/31 03:15:31;;;;;;;23.20;18.17;;;26.60;96.40;;;;;;4173861;28;20057;-70
2022/01/31 03:17:49;;;;;;;23.15;17.85;;;26.60;96.30;;;;;;4154113;28;20046;-70
2022/01/31 03:19:55;;;;;;;27.50;19.67;;;26.70;96.30;;;;;;4172445;28;20060;-70
2022/01/31 03:21:59;;;;;;;26.98;19.20;;;26.70;96.30;;;;;;4173798;28;20083;-70
2022/01/31 03:24:04;;;;;;;25.48;18.48;;;26.80;96.20;;;;;;4174142;28;20829;-70
2022/01/31 03:26:09;;;;;;;25.60;18.95;;;26.80;96.10;;;;;;4175416;28;20072;-69
2022/01/31 03:28:13;;;;;;;25.13;18.63;;;26.90;96.00;;;;;;4204051;28;20534;-70
2022/01/31 03:30:21;;;;;;;22.08;18.33;;;26.90;96.00;;;;;;4211725;28;20052;-70
2022/01/31 03:32:29;;;;;;;24.88;19.15;;;27.00;95.80;;;;;;4187785;28;20064;-70
2022/01/31 03:34:34;;;;;;;26.35;19.13;;;27.00;95.70;;;;;;4188676;28;20053;-70
2022/01/31 03:36:38;;;;;;;25.35;18.67;;;27.00;95.80;;;;;;4192450;28;20935;-69
2022/01/31 03:38:47;;;;;;;23.05;17.67;;;27.10;95.80;;;;;;4194111;28;20064;-69
2022/01/31 03:40:51;;;;;;;23.65;18.10;;;27.10;95.70;;;;;;4189826;28;20633;-70
2022/01/31 03:42:56;;;;;;;25.42;18.48;;;27.20;95.60;;;;;;4212198;28;20379;-70
2022/01/31 03:45:00;;;;;;;24.50;18.75;;;27.20;95.60;;;;;;4197959;28;20399;-70
2022/01/31 03:47:05;;;;;;;22.55;18.52;;;27.30;95.50;;;;;;4200716;28;20045;-71
2022/01/31 03:49:09;;;;;;;28.20;18.33;;;27.30;95.40;;;;;;4196802;28;20049;-70
2022/01/31 03:51:20;;;;;;;25.23;17.58;;;27.40;95.30;;;;;;4196780;28;20157;-70
2022/01/31 03:53:25;;;;;;;24.30;19.05;;;27.40;95.30;;;;;;4197333;28;20470;-71
2022/01/31 03:55:30;;;;;;;26.90;18.33;;;27.40;95.00;;;;;;4197619;28;20048;-69
2022/01/31 03:57:34;;;;;;;25.20;17.20;;;27.50;95.20;;;;;;4212568;28;20046;-70
2022/01/31 03:59:54;;;;;;;25.90;18.23;;;27.50;95.10;;;;;;4214218;28;20072;-70
2022/01/31 04:01:58;;;;;;;22.60;17.45;;;27.60;94.70;;;;;;4231178;28;20115;-70
2022/01/31 04:04:02;;;;;;;25.48;17.60;;;27.60;94.40;;;;;;4207788;28;20043;-70
2022/01/31 04:06:06;;;;;;;22.85;16.98;;;27.60;94.60;;;;;;4214862;28;20032;-71
2022/01/31 04:08:14;;;;;;;24.45;16.83;;;27.70;94.50;;;;;;4218323;28;20568;-71
2022/01/31 04:10:18;;;;;;;23.02;17.67;;;27.80;94.30;;;;;;4208774;28;20078;-70
2022/01/31 04:12:22;;;;;;;22.13;17.80;;;27.80;93.90;;;;;;4198608;28;20051;-70
2022/01/31 04:14:27;;;;;;;23.42;16.02;;;27.90;93.80;;;;;;4198511;28;20432;-69
2022/01/31 04:16:31;;;;;;;19.52;16.20;;;27.80;93.80;;;;;;4198399;28;20048;-70
2022/01/31 04:18:35;;;;;;;22.77;16.02;;;28.00;93.70;;;;;;4219149;28;20043;-70
2022/01/31 04:20:39;;;;;;;21.95;16.77;;;28.00;93.40;;;;;;4214909;28;20052;-70
2022/01/31 04:22:53;;;;;;;25.05;17.60;;;28.00;93.10;;;;;;4214448;28;20132;-70
2022/01/31 04:25:01;;;;;;;26.42;16.80;;;28.10;93.00;;;;;;4214895;28;20071;-70
2022/01/31 04:27:08;;;;;;;20.42;16.20;;;28.10;92.90;;;;;;4214852;28;20106;-70
2022/01/31 04:29:17;;;;;;;22.67;16.33;;;28.20;92.80;;;;;;4214613;28;20051;-70
2022/01/31 04:33:27;;;;;;;21.35;15.85;;;28.20;92.90;;;;;;4196157;28;20041;-71
2022/01/31 04:35:31;;;;;;;22.42;16.60;;;28.30;92.50;;;;;;4213905;28;20063;-70
2022/01/31 04:37:35;;;;;;;20.20;14.93;;;28.40;92.20;;;;;;4216520;28;20052;-70
2022/01/31 04:39:39;;;;;;;21.75;15.82;;;28.40;92.30;;;;;;4216519;28;20379;-70
2022/01/31 04:41:44;;;;;;;18.80;15.48;;;28.50;92.00;;;;;;4222800;28;20032;-72
2022/01/31 04:43:50;;;;;;;21.17;14.98;;;28.50;91.70;;;;;;4224603;28;20048;-70
2022/01/31 04:45:56;;;;;;;19.73;14.48;;;28.60;91.50;;;;;;4213194;28;20123;-72
2022/01/31 04:48:00;;;;;;;22.45;14.43;;;28.60;91.20;;;;;;4211777;28;20117;-71
2022/01/31 04:50:07;;;;;;;15.88;13.80;;;28.60;91.40;;;;;;4221524;28;20379;-71
2022/01/31 04:52:11;;;;;;;20.63;14.68;;;28.70;91.20;;;;;;4221649;28;20048;-71
2022/01/31 04:54:15;;;;;;;18.20;14.02;;;28.70;91.00;;;;;;4224097;28;20089;-71
2022/01/31 04:56:19;;;;;;;18.10;15.30;;;28.70;90.60;;;;;;4211694;28;20064;-70
2022/01/31 04:58:25;;;;;;;16.92;14.10;;;28.70;90.50;;;;;;4221351;28;20031;-71
2022/01/31 05:00:29;;;;;;;17.92;13.80;;;28.80;90.30;;;;;;4213870;28;20057;-71
2022/01/31 05:02:34;;;;;;;19.40;13.75;;;28.80;90.20;;;;;;4210985;28;20553;-70
2022/01/31 05:04:38;;;;;;;17.98;13.95;;;28.90;90.10;;;;;;4219344;28;20907;-70
2022/01/31 05:06:44;;;;;;;19.80;14.18;;;28.90;89.40;;;;;;4225583;28;20608;-71
2022/01/31 05:08:48;;;;;;;18.55;14.27;;;29.00;89.60;;;;;;4221813;28;20090;-72
2022/01/31 05:10:53;;;;;;;15.43;13.35;;;29.00;89.50;;;;;;4217744;28;20051;-71
2022/01/31 05:12:57;;;;;;;18.40;13.73;;;29.00;90.10;;;;;;4216625;28;20101;-73
2022/01/31 05:15:01;;;;;;;20.70;14.63;;;29.10;90.00;;;;;;4220616;28;20046;-71
2022/01/31 05:17:05;;;;;;;18.38;13.63;;;29.20;89.70;;;;;;4220722;28;20167;-71
2022/01/31 05:19:10;;;;;;;17.00;12.95;;;29.20;88.90;;;;;;4221402;28;20071;-71
2022/01/31 05:21:14;;;;;;;15.38;12.63;;;29.30;88.40;;;;;;4222355;28;20046;-71
2022/01/31 05:23:18;;;;;;;15.88;12.27;;;29.40;88.00;;;;;;4222051;28;20039;-71
2022/01/31 05:25:22;;;;;;;15.20;12.00;;;29.40;84.30;;;;;;4221367;28;20105;-71
2022/01/31 05:27:26;;;;;;;17.92;11.80;;;29.50;84.80;;;;;;4221741;28;20036;-71
2022/01/31 05:29:30;;;;;;;18.92;11.63;;;29.50;85.00;;;;;;4222177;28;20464;-73
2022/01/31 05:31:34;;;;;;;16.38;11.80;;;29.50;85.40;;;;;;4222504;28;20482;-72
2022/01/31 05:33:38;;;;;;;16.23;11.63;;;29.60;85.10;;;;;;4220188;28;20064;-72
2022/01/31 05:35:45;;;;;;;15.43;12.00;;;29.60;84.70;;;;;;4212239;28;20371;-71
2022/01/31 05:37:49;;;;;;;15.63;10.98;;;29.80;83.80;;;;;;4219572;28;20070;-73
2022/01/31 05:39:53;;;;;;;19.88;11.52;;;29.80;82.60;;;;;;4215139;28;20050;-72
2022/01/31 05:41:57;;;;;;;21.38;11.02;;;29.80;83.10;;;;;;4212864;28;20032;-72
2022/01/31 05:44:01;;;;;;;14.35;11.68;;;29.90;83.50;;;;;;4212459;28;20044;-72
2022/01/31 05:46:05;;;;;;;14.07;10.60;;;29.90;83.70;;;;;;4220679;28;20467;-72
2022/01/31 05:48:10;;;;;;;13.57;11.00;;;30.00;84.30;;;;;;4220888;28;20393;-72
2022/01/31 05:50:14;;;;;;;13.52;10.23;;;30.00;83.70;;;;;;4215698;28;20044;-72
2022/01/31 05:52:18;;;;;;;15.57;10.77;;;30.10;83.20;;;;;;4214337;28;20044;-72
2022/01/31 05:54:22;;;;;;;16.20;11.35;;;30.20;83.10;;;;;;4212111;28;20063;-74
2022/01/31 05:56:27;;;;;;;15.50;10.95;;;30.30;81.80;;;;;;4215522;28;20527;-71
2022/01/31 05:58:31;;;;;;;15.45;10.27;;;30.30;81.80;;;;;;4218395;28;20074;-71
2022/01/31 06:00:37;;;;;;;15.82;10.77;;;30.30;82.60;;;;;;4220846;28;20491;-70
2022/01/31 06:02:41;;;;;;;14.68;10.73;;;30.20;82.10;;;;;;4216734;28;20808;-72
2022/01/31 06:04:46;;;;;;;14.52;11.48;;;30.30;82.10;;;;;;4222574;28;20050;-72
2022/01/31 06:06:50;;;;;;;17.10;11.13;;;30.20;82.50;;;;;;4215330;28;20106;-72
2022/01/31 06:08:58;;;;;;;15.32;10.70;;;30.20;82.90;;;;;;4220864;28;20055;-72
2022/01/31 06:11:02;;;;;;;13.55;11.02;;;30.00;83.40;;;;;;4228093;28;20060;-71
2022/01/31 06:13:06;;;;;;;18.95;10.90;;;30.00;83.50;;;;;;4216633;28;20139;-71
2022/01/31 06:15:11;;;;;;;15.45;11.57;;;30.10;83.60;;;;;;4227772;28;20067;-72
2022/01/31 06:17:16;;;;;;;16.17;12.10;;;30.20;83.80;;;;;;4217636;28;20123;-72
2022/01/31 06:19:20;;;;;;;15.32;11.68;;;30.40;83.50;;;;;;4219840;28;20127;-72
2022/01/31 06:21:25;;;;;;;17.95;12.13;;;30.30;83.40;;;;;;4220596;28;20040;-72
2022/01/31 06:23:29;;;;;;;15.13;11.48;;;30.30;83.00;;;;;;4208254;28;20040;-73
2022/01/31 06:25:34;;;;;;;14.35;11.63;;;30.40;82.50;;;;;;4220424;28;20044;-73
2022/01/31 06:27:40;;;;;;;21.17;12.13;;;30.40;82.60;;;;;;4220785;28;20135;-73
2022/01/31 06:29:46;;;;;;;16.85;11.60;;;30.40;82.10;;;;;;4210690;28;20434;-73
2022/01/31 06:32:00;;;;;;;17.08;10.95;;;30.40;81.90;;;;;;4208214;28;20517;-73
2022/01/31 06:34:05;;;;;;;13.25;10.85;;;30.50;81.70;;;;;;4220167;28;20126;-72
2022/01/31 06:36:09;;;;;;;16.30;11.05;;;30.50;81.80;;;;;;4218386;28;20053;-72
2022/01/31 06:38:13;;;;;;;15.63;10.50;;;30.60;81.00;;;;;;4227931;28;20605;-71
2022/01/31 06:40:18;;;;;;;13.98;10.63;;;30.60;79.30;;;;;;4208797;28;20059;-71
2022/01/31 06:42:22;;;;;;;14.95;10.30;;;30.60;79.00;;;;;;4218137;28;20048;-71
2022/01/31 06:44:27;;;;;;;15.35;10.65;;;30.70;78.60;;;;;;4220506;28;20078;-71
2022/01/31 06:46:31;;;;;;;18.60;10.30;;;30.70;78.60;;;;;;4220023;28;20101;-72
2022/01/31 06:48:36;;;;;;;14.50;10.50;;;30.60;78.70;;;;;;4220369;28;20732;-72
2022/01/31 06:50:40;;;;;;;13.57;9.77;;;30.70;77.90;;;;;;4219516;28;20090;-72
2022/01/31 06:52:44;;;;;;;12.38;9.90;;;30.80;77.30;;;;;;4220109;28;20040;-72
2022/01/31 06:54:50;;;;;;;11.98;10.25;;;30.80;77.60;;;;;;4215084;28;20089;-71
2022/01/31 06:56:57;;;;;;;12.88;10.15;;;30.90;78.00;;;;;;4213058;28;20051;-73
2022/01/31 06:59:02;;;;;;;14.65;10.60;;;30.90;77.40;;;;;;4210705;28;20036;-74
2022/01/31 07:01:06;;;;;;;18.55;11.65;;;31.00;79.00;;;;;;4215537;28;20071;-73
2022/01/31 07:03:13;;;;;;;13.70;10.65;;;31.00;79.40;;;;;;4212877;28;20032;-73
2022/01/31 07:05:18;;;;;;;18.17;10.93;;;31.00;79.50;;;;;;4199020;28;20059;-73
2022/01/31 07:07:22;;;;;;;15.63;10.45;;;30.90;79.60;;;;;;4210629;28;20032;-73
2022/01/31 07:09:26;;;;;;;18.65;11.13;;;30.90;79.30;;;;;;4214270;28;20468;-74
2022/01/31 07:11:36;;;;;;;13.27;10.65;;;30.90;79.10;;;;;;4219891;28;20072;-72
2022/01/31 07:13:40;;;;;;;17.20;10.73;;;30.90;79.10;;;;;;4219028;28;20055;-72
2022/01/31 07:15:45;;;;;;;15.00;10.88;;;31.10;79.10;;;;;;4221977;28;20366;-73
2022/01/31 07:17:49;;;;;;;14.05;10.60;;;31.10;77.90;;;;;;4218847;28;20131;-72
2022/01/31 07:19:54;;;;;;;14.35;10.15;;;31.00;77.30;;;;;;4215068;28;20571;-73
2022/01/31 07:21:59;;;;;;;14.38;10.48;;;30.90;77.40;;;;;;4219951;28;20032;-72
2022/01/31 07:26:20;;;;;;;13.90;10.25;;;31.00;76.50;;;;;;4227290;28;20059;-73
2022/01/31 07:28:25;;;;;;;13.90;10.93;;;31.00;76.70;;;;;;4215634;28;20054;-73
2022/01/31 07:30:29;;;;;;;11.00;9.48;;;31.00;77.00;;;;;;4222081;28;20093;-72
2022/01/31 07:32:35;;;;;;;11.45;10.25;;;31.00;77.70;;;;;;4213584;28;20056;-72
2022/01/31 07:34:40;;;;;;;11.98;9.68;;;30.90;78.00;;;;;;4216864;28;20048;-73
2022/01/31 07:36:44;;;;;;;13.50;9.60;;;30.90;77.90;;;;;;4218858;28;20105;-72
2022/01/31 07:38:50;;;;;;;12.82;10.07;;;30.90;77.90;;;;;;4227086;28;20074;-73
2022/01/31 07:40:57;;;;;;;12.00;10.13;;;30.90;78.00;;;;;;4217219;28;20047;-72
2022/01/31 07:43:01;;;;;;;16.33;10.73;;;30.80;77.80;;;;;;4220116;28;20074;-73
2022/01/31 07:45:07;;;;;;;15.13;10.07;;;30.90;78.00;;;;;;4219867;28;20044;-73
2022/01/31 07:47:14;;;;;;;12.82;10.23;;;31.00;77.80;;;;;;4219789;28;20459;-73
2022/01/31 07:49:21;;;;;;;16.27;10.18;;;31.00;77.60;;;;;;4219719;28;20051;-73
2022/01/31 07:51:26;;;;;;;16.83;10.32;;;31.00;77.70;;;;;;4219997;28;20470;-73
2022/01/31 07:53:30;;;;;;;14.02;9.93;;;31.10;77.60;;;;;;4216586;28;20093;-71
2022/01/31 07:55:34;;;;;;;13.20;9.02;;;31.20;77.50;;;;;;4217104;28;20048;-72
2022/01/31 07:57:45;;;;;;;12.00;9.45;;;31.20;76.60;;;;;;4222006;28;20052;-70
2022/01/31 07:59:50;;;;;;;12.77;9.55;;;31.20;76.80;;;;;;4228523;28;20039;-71
2022/01/31 08:01:55;;;;;;;13.65;9.70;;;31.30;76.70;;;;;;4228216;28;20051;-71
2022/01/31 08:03:59;;;;;;;13.55;9.77;;;31.30;75.70;;;;;;4221727;28;20134;-71
2022/01/31 08:06:04;;;;;;;11.10;9.73;;;31.30;75.30;;;;;;4214325;28;20100;-72
2022/01/31 08:08:09;;;;;;;15.63;10.23;;;31.30;76.10;;;;;;4216239;28;20440;-70
2022/01/31 08:10:13;;;;;;;14.80;9.68;;;31.20;75.40;;;;;;4211192;28;20474;-71
2022/01/31 08:12:17;;;;;;;12.52;10.25;;;31.30;75.90;;;;;;4208541;28;20040;-71
2022/01/31 08:14:21;;;;;;;14.25;9.48;;;31.30;75.50;;;;;;4206197;28;20040;-71
2022/01/31 08:16:26;;;;;;;15.60;9.98;;;31.30;75.30;;;;;;4213375;28;20059;-72
2022/01/31 08:18:31;;;;;;;15.18;10.32;;;31.20;75.20;;;;;;4211867;28;20048;-70
2022/01/31 08:20:35;;;;;;;12.93;10.68;;;31.20;75.30;;;;;;4193871;28;20044;-71
2022/01/31 08:22:39;;;;;;;14.30;11.10;;;31.10;75.70;;;;;;4211975;28;20508;-71
2022/01/31 08:24:43;;;;;;;14.45;10.80;;;31.10;76.10;;;;;;4193946;28;20094;-71
2022/01/31 08:26:48;;;;;;;14.35;10.35;;;31.10;76.20;;;;;;4212809;28;20466;-71
2022/01/31 08:28:59;;;;;;;11.88;9.40;;;31.10;76.00;;;;;;4228958;28;20544;-71
2022/01/31 08:31:29;;;;;;;11.68;9.15;;;31.10;72.80;;;;;;4231993;28;20135;-72
2022/01/31 08:33:43;;;;;;;13.15;9.73;;;31.20;74.30;;;;;;4215764;28;20051;-73
2022/01/31 08:35:48;;;;;;;15.43;9.90;;;31.20;74.40;;;;;;4207867;28;20453;-71
2022/01/31 08:37:52;;;;;;;13.10;9.43;;;31.20;75.00;;;;;;4209531;28;20036;-72
2022/01/31 08:39:57;;;;;;;13.50;9.30;;;31.20;75.20;;;;;;4211427;28;20639;-71
2022/01/31 08:42:02;;;;;;;12.40;9.07;;;31.20;75.10;;;;;;4186040;28;20128;-71
2022/01/31 08:44:07;;;;;;;13.00;9.13;;;31.30;74.80;;;;;;4177765;28;20621;-70
2022/01/31 08:46:13;;;;;;;13.07;8.95;;;31.20;74.30;;;;;;4195674;28;20076;-71
2022/01/31 08:48:18;;;;;;;11.93;8.88;;;31.30;74.10;;;;;;4205082;28;20044;-72
2022/01/31 08:50:22;;;;;;;15.02;8.35;;;31.30;74.40;;;;;;4211542;28;20281;-71
2022/01/31 08:52:26;;;;;;;11.23;9.00;;;31.30;74.50;;;;;;4212482;28;20533;-72
2022/01/31 08:54:31;;;;;;;14.05;9.20;;;31.30;74.80;;;;;;4211761;28;20070;-72
2022/01/31 08:56:40;;;;;;;12.60;8.75;;;31.40;75.00;;;;;;4211932;28;20070;-72
2022/01/31 08:58:48;;;;;;;11.93;8.35;;;31.40;74.50;;;;;;4203533;28;20048;-73
2022/01/31 09:01:01;;;;;;;12.38;8.05;;;31.30;74.20;;;;;;4195007;28;20048;-72
2022/01/31 09:03:21;;;;;;;11.13;8.60;;;31.30;74.10;;;;;;4212227;28;20385;-73
2022/01/31 09:05:26;;;;;;;13.60;9.13;;;31.30;74.30;;;;;;4208551;28;20069;-72
2022/01/31 09:07:30;;;;;;;10.70;8.63;;;31.30;74.40;;;;;;4212277;28;20040;-72
2022/01/31 09:09:35;;;;;;;11.40;8.63;;;31.30;74.10;;;;;;4215358;28;20671;-73
2022/01/31 09:11:40;;;;;;;15.40;8.85;;;31.30;74.40;;;;;;4217778;28;20059;-73
2022/01/31 09:13:44;;;;;;;11.63;8.80;;;31.40;74.10;;;;;;4214446;28;20048;-72
2022/01/31 09:15:49;;;;;;;12.45;8.77;;;31.30;73.40;;;;;;4214303;28;20108;-72
2022/01/31 09:17:53;;;;;;;15.05;11.52;;;31.20;74.10;;;;;;4213875;28;20071;-73
2022/01/31 09:19:57;;;;;;;15.40;11.73;;;31.30;73.40;;;;;;4224444;28;20100;-73
2022/01/31 09:22:02;;;;;;;14.52;11.35;;;31.20;73.50;;;;;;4231125;28;20039;-74
2022/01/31 09:24:06;;;;;;;14.15;10.07;;;31.20;73.80;;;;;;4231415;28;20045;-73
2022/01/31 09:26:10;;;;;;;19.88;10.52;;;31.20;73.90;;;;;;4227029;28;20051;-72
2022/01/31 09:28:15;;;;;;;11.48;9.05;;;31.20;74.30;;;;;;4210682;28;20074;-72
2022/01/31 09:30:21;;;;;;;11.70;9.20;;;31.20;74.40;;;;;;4214620;28;20047;-72
2022/01/31 09:32:26;;;;;;;11.50;8.80;;;31.10;74.50;;;;;;4212644;28;20051;-72
2022/01/31 09:34:30;;;;;;;13.35;8.85;;;31.10;74.90;;;;;;4212987;28;20040;-73
2022/01/31 09:36:35;;;;;;;12.82;9.18;;;31.10;74.80;;;;;;4222340;28;20043;-73
2022/01/31 09:38:40;;;;;;;13.57;9.38;;;31.10;75.00;;;;;;4230834;28;20109;-72
2022/01/31 09:40:45;;;;;;;12.52;8.82;;;31.10;74.90;;;;;;4221772;28;20044;-71
2022/01/31 09:43:06;;;;;;;10.35;8.77;;;31.10;74.40;;;;;;4213750;28;20090;-71
2022/01/31 09:45:24;;;;;;;11.45;8.65;;;31.10;74.20;;;;;;4213746;28;20491;-71
2022/01/31 09:49:44;;;;;;;16.98;8.82;;;31.10;74.20;;;;;;4213443;28;20052;-72
2022/01/31 09:51:49;;;;;;;13.93;9.60;;;31.00;74.40;;;;;;4227529;28;20061;-72
2022/01/31 09:53:54;;;;;;;15.10;9.90;;;31.00;74.20;;;;;;4230496;28;20063;-72
2022/01/31 09:55:58;;;;;;;17.83;9.27;;;31.00;74.30;;;;;;4229355;28;20048;-73
2022/01/31 09:58:06;;;;;;;14.02;8.98;;;31.00;74.20;;;;;;4230631;28;20096;-71
2022/01/31 10:00:11;;;;;;;11.35;9.43;;;30.90;74.20;;;;;;4212236;28;20512;-71
2022/01/31 10:02:21;;;;;;;14.30;9.65;;;30.90;74.30;;;;;;4212061;28;20075;-70
2022/01/31 10:04:29;;;;;;;13.95;9.60;;;30.90;74.50;;;;;;4216311;28;20044;-71
2022/01/31 10:06:36;;;;;;;11.95;9.20;;;30.90;74.90;;;;;;4196219;28;20490;-71
2022/01/31 10:08:41;;;;;;;15.20;9.90;;;30.90;75.20;;;;;;4213316;28;20050;-70
2022/01/31 10:10:47;;;;;;;16.17;10.60;;;30.90;75.00;;;;;;4187074;28;20066;-70
2022/01/31 10:17:37;;;;;;;13.00;9.63;;;30.80;74.30;;;;;;4217042;28;20040;-72
2022/01/31 10:19:45;;;;;;;15.95;9.77;;;30.80;74.00;;;;;;4218737;28;20730;-70
2022/01/31 10:22:04;;;;;;;15.45;9.95;;;30.80;74.20;;;;;;4215769;28;20395;-74
2022/01/31 10:24:18;;;;;;;16.58;10.15;;;30.70;74.50;;;;;;4218218;28;20498;-71
2022/01/31 10:26:32;;;;;;;18.35;11.90;;;30.70;74.80;;;;;;4216270;28;20040;-71
2022/01/31 10:28:40;;;;;;;17.02;12.18;;;30.70;75.20;;;;;;4207130;28;20058;-70
2022/01/31 10:30:46;;;;;;;16.90;11.88;;;30.70;75.60;;;;;;4211413;28;20253;-71
2022/01/31 10:32:51;;;;;;;53.40;25.67;;;30.60;76.00;;;;;;4211171;28;20586;-69
2022/01/31 10:34:57;;;;;;;41.65;20.38;;;30.60;76.40;;;;;;4209284;28;20731;-70
2022/01/31 10:37:07;;;;;;;36.30;18.60;;;30.60;76.80;;;;;;4214322;28;20058;-69
2022/01/31 10:43:23;;;;;;;23.67;11.65;;;30.50;76.90;;;;;;4218853;28;20523;-71
2022/01/31 10:53:48;;;;;;;14.45;9.95;;;30.30;78.00;;;;;;4213782;28;20386;-71
2022/01/31 10:55:54;;;;;;;21.65;11.10;;;30.20;78.50;;;;;;4229143;28;20036;-72
2022/01/31 10:58:08;;;;;;;18.42;10.25;;;30.20;78.50;;;;;;4212862;28;20479;-71
2022/01/31 11:00:13;;;;;;;16.90;9.55;;;30.20;78.70;;;;;;4205676;28;20043;-70
2022/01/31 11:02:20;;;;;;;18.92;10.40;;;30.20;78.70;;;;;;4208351;28;20075;-72
2022/01/31 11:04:24;;;;;;;19.88;10.70;;;30.10;79.00;;;;;;4199863;28;20597;-70